Time;durP1;ratioP1;P1;durP2;ratioP2;P2;SDS_P1;SDS_P2;PMS_P1;PMS_P2;Temp;Humidity;BMP_temperature;BMP_pressure;BME280_temperature;BME280_humidity;BME280_pressure;Samples;Min_cycle;Max_cycle;Signal;HPM_P1;HPM_P2
2022/08/21 00:00:35;;;;;;;1.90;1.45;;;;;;;26.22;51.67;100624.78;5077142;28;20056;-75
2022/08/21 00:03:05;;;;;;;1.98;1.50;;;;;;;26.21;51.65;100629.38;5076759;28;20060;-75
2022/08/21 00:05:40;;;;;;;2.20;1.70;;;;;;;26.22;51.61;100619.34;5077527;28;20461;-75
2022/08/21 00:08:08;;;;;;;2.80;1.55;;;;;;;26.21;51.70;100623.94;5077578;28;20044;-75
2022/08/21 00:10:36;;;;;;;2.65;1.70;;;;;;;26.23;51.76;100629.19;5092095;28;20055;-75
2022/08/21 00:13:04;;;;;;;2.00;1.50;;;;;;;26.22;51.74;100632.91;5075513;28;20044;-75
2022/08/21 00:15:33;;;;;;;2.88;1.75;;;;;;;26.22;51.47;100635.63;5058948;28;20059;-75
2022/08/21 00:18:01;;;;;;;3.25;1.63;;;;;;;26.22;51.64;100635.63;5076661;28;20488;-75
2022/08/21 00:20:29;;;;;;;2.58;1.85;;;;;;;26.21;51.67;100642.94;5076923;28;20048;-75
2022/08/21 00:22:57;;;;;;;2.13;1.63;;;;;;;26.23;51.79;100642.75;5076299;28;20045;-75
2022/08/21 00:25:25;;;;;;;2.65;1.70;;;;;;;26.23;51.88;100638.16;5076261;28;20051;-75
2022/08/21 00:27:54;;;;;;;2.95;1.60;;;;;;;26.22;51.94;100641.91;5076519;28;20049;-75
2022/08/21 00:30:23;;;;;;;4.68;1.95;;;;;;;26.22;51.89;100647.34;5076895;28;20068;-75
2022/08/21 00:32:53;;;;;;;3.42;1.55;;;;;;;26.22;52.13;100650.03;5076931;28;20480;-75
2022/08/21 00:35:28;;;;;;;2.60;1.70;;;;;;;26.22;52.02;100641.91;5076447;28;20079;-75
2022/08/21 00:37:56;;;;;;;2.58;1.80;;;;;;;26.23;52.21;100637.31;5075107;28;20059;-75
2022/08/21 00:40:28;;;;;;;2.58;1.50;;;;;;;26.22;52.21;100635.63;5076812;28;20041;-75
2022/08/21 00:42:56;;;;;;;2.42;1.63;;;;;;;26.22;52.04;100643.78;5076436;28;20048;-75
2022/08/21 00:45:24;;;;;;;2.70;1.90;;;;;;;26.23;52.07;100640.03;5076388;28;20040;-75
2022/08/21 00:47:51;;;;;;;2.40;1.70;;;;;;;26.22;52.26;100633.75;5076163;28;20048;-75
2022/08/21 00:50:20;;;;;;;3.55;1.90;;;;;;;26.21;52.28;100631.22;5076962;28;20052;-76
2022/08/21 00:52:52;;;;;;;2.40;1.70;;;;;;;26.22;52.11;100635.63;5076710;28;20041;-75
2022/08/21 00:55:21;;;;;;;2.20;1.50;;;;;;;26.22;52.03;100622.91;5075157;28;20416;-75
2022/08/21 00:57:54;;;;;;;2.10;1.60;;;;;;;26.21;52.28;100626.66;5075004;28;20049;-75
2022/08/21 01:00:27;;;;;;;2.70;1.65;;;;;;;26.22;52.19;100627.50;5076433;28;20040;-75
2022/08/21 01:02:56;;;;;;;3.65;1.80;;;;;;;26.22;52.29;100627.50;5074839;28;20052;-75
2022/08/21 01:05:25;;;;;;;2.85;1.92;;;;;;;26.21;52.27;100623.94;5076426;28;20507;-75
2022/08/21 01:07:53;;;;;;;2.85;1.98;;;;;;;26.21;52.13;100626.66;5075834;28;20048;-75
2022/08/21 01:10:21;;;;;;;3.58;1.58;;;;;;;26.21;52.29;100632.09;5074591;28;20055;-75
2022/08/21 01:12:52;;;;;;;2.30;1.70;;;;;;;26.21;52.24;100634.78;5075594;28;20400;-75
2022/08/21 01:15:23;;;;;;;3.42;1.70;;;;;;;26.22;52.22;100630.22;5075820;28;20052;-75
2022/08/21 01:17:51;;;;;;;2.10;1.60;;;;;;;26.22;52.38;100635.63;5076479;28;20048;-75
2022/08/21 01:20:18;;;;;;;2.75;1.90;;;;;;;26.21;52.51;100642.06;5075645;28;20044;-75
2022/08/21 01:22:45;;;;;;;4.25;2.00;;;;;;;26.20;52.35;100633.09;5075820;28;20040;-75
2022/08/21 01:25:21;;;;;;;2.53;1.80;;;;;;;26.21;52.42;100633.94;5075513;28;20048;-75
2022/08/21 01:27:49;;;;;;;2.83;2.08;;;;;;;26.21;52.49;100631.22;5075759;28;20519;-75
2022/08/21 01:30:21;;;;;;;2.50;1.70;;;;;;;26.22;52.51;100630.22;5075443;28;20052;-75
2022/08/21 01:32:49;;;;;;;;;;;;;;;26.22;52.56;100630.22;5074365;28;20385;-75
2022/08/21 01:35:18;;;;;;;4.53;1.90;;;;;;;26.21;52.75;100625.78;5075768;28;19927;-75
2022/08/21 01:37:47;;;;;;;2.78;1.80;;;;;;;26.21;52.89;100628.50;5073912;28;20052;-75
2022/08/21 01:40:16;;;;;;;2.85;1.83;;;;;;;26.21;52.71;100621.22;5075200;28;20052;-75
2022/08/21 01:42:45;;;;;;;3.85;1.98;;;;;;;26.21;52.72;100623.06;5075149;28;20036;-75
2022/08/21 01:45:15;;;;;;;3.17;2.03;;;;;;;26.21;52.76;100617.66;5073704;28;20164;-75
2022/08/21 01:47:44;;;;;;;2.55;1.80;;;;;;;26.21;52.85;100618.50;5075917;28;20056;-75
2022/08/21 01:50:18;;;;;;;2.50;1.80;;;;;;;26.21;52.70;100617.66;5073871;28;20377;-75
2022/08/21 01:52:46;;;;;;;2.72;1.73;;;;;;;26.22;52.78;100613.94;5075360;28;20040;-75
2022/08/21 01:55:16;;;;;;;2.28;1.70;;;;;;;26.20;52.82;100608.66;5075468;28;20052;-75
2022/08/21 01:57:44;;;;;;;2.85;1.70;;;;;;;26.21;52.49;100610.38;5089549;28;20052;-75
2022/08/21 02:00:14;;;;;;;2.65;1.80;;;;;;;26.21;52.43;100610.38;5074194;28;20103;-75
2022/08/21 02:02:42;;;;;;;2.47;1.85;;;;;;;26.21;52.49;100612.22;5074523;28;20418;-75
2022/08/21 02:05:11;;;;;;;3.28;1.85;;;;;;;26.21;52.52;100612.22;5075365;28;20051;-75
2022/08/21 02:07:42;;;;;;;2.45;1.83;;;;;;;26.21;52.39;100614.94;5075039;28;20053;-76
2022/08/21 02:10:11;;;;;;;4.70;2.17;;;;;;;26.21;52.51;100612.22;5090319;28;20049;-75
2022/08/21 02:12:39;;;;;;;2.65;1.70;;;;;;;26.21;52.29;100617.66;5074748;28;20036;-75
2022/08/21 02:15:07;;;;;;;2.30;1.70;;;;;;;26.21;52.44;100612.22;5073878;28;20480;-75
2022/08/21 02:17:45;;;;;;;2.60;1.92;;;;;;;26.20;52.34;100602.41;5074462;28;20044;-75
2022/08/21 02:20:19;;;;;;;3.38;1.80;;;;;;;26.20;52.48;100595.09;5075011;28;20049;-75
2022/08/21 02:22:46;;;;;;;3.13;2.15;;;;;;;26.20;52.53;100599.69;5074761;28;20040;-75
2022/08/21 02:25:14;;;;;;;2.92;1.50;;;;;;;26.20;52.39;100591.53;5074455;28;20054;-75
2022/08/21 02:27:43;;;;;;;4.20;1.77;;;;;;;26.20;52.56;100595.09;5074182;28;20432;-75
2022/08/21 02:30:14;;;;;;;3.35;2.30;;;;;;;26.20;52.54;100591.53;5074251;28;20052;-75
2022/08/21 02:32:42;;;;;;;2.67;1.95;;;;;;;26.20;52.52;100602.41;5074988;28;20041;-75
2022/08/21 02:35:11;;;;;;;2.50;1.70;;;;;;;26.21;52.49;100595.94;5074417;28;20044;-75
2022/08/21 02:37:44;;;;;;;2.67;1.80;;;;;;;26.20;52.67;100605.94;5074159;28;20052;-75
2022/08/21 02:40:12;;;;;;;3.75;2.08;;;;;;;26.19;52.33;100601.56;5074603;28;20048;-75
2022/08/21 02:42:40;;;;;;;1.90;1.48;;;;;;;26.19;52.41;100598.00;5073983;28;20040;-75
2022/08/21 02:45:08;;;;;;;2.60;1.90;;;;;;;26.20;52.46;100595.09;5073082;28;20045;-75
2022/08/21 02:47:36;;;;;;;2.75;1.85;;;;;;;26.20;52.51;100602.41;5074463;28;20051;-75
2022/08/21 02:50:04;;;;;;;4.00;2.00;;;;;;;26.20;52.23;100602.41;5074454;28;20052;-75
2022/08/21 02:52:33;;;;;;;4.32;2.25;;;;;;;26.20;52.51;100594.25;5073887;28;20043;-75
2022/08/21 02:55:00;;;;;;;3.50;2.20;;;;;;;26.20;52.54;100591.53;5074087;28;20059;-75
2022/08/21 02:57:28;;;;;;;2.67;1.63;;;;;;;26.20;52.44;100594.25;5074057;28;20037;-75
2022/08/21 02:59:55;;;;;;;4.13;1.80;;;;;;;26.19;52.21;100593.41;5074562;28;20048;-75
2022/08/21 03:02:22;;;;;;;3.60;1.83;;;;;;;26.20;52.52;100588.84;5074306;28;20041;-75
2022/08/21 03:04:52;;;;;;;2.33;1.83;;;;;;;26.20;52.24;100599.69;5073615;28;20061;-75
2022/08/21 03:07:20;;;;;;;2.45;1.80;;;;;;;26.19;52.30;100598.84;5074343;28;20385;-75
2022/08/21 03:09:47;;;;;;;2.70;1.77;;;;;;;26.20;52.15;100602.41;5074072;28;20044;-75
2022/08/21 03:12:22;;;;;;;3.08;2.33;;;;;;;26.19;52.20;100609.69;5072555;28;20049;-75
2022/08/21 03:14:52;;;;;;;2.88;2.08;;;;;;;26.19;52.17;100601.56;5073676;28;20053;-75
2022/08/21 03:17:19;;;;;;;2.20;1.73;;;;;;;26.19;52.16;100600.72;5073668;28;20044;-75
2022/08/21 03:19:56;;;;;;;5.60;2.20;;;;;;;26.19;52.09;100598.00;5074287;28;20059;-75
2022/08/21 03:22:24;;;;;;;2.53;1.73;;;;;;;26.19;52.06;100601.56;5073833;28;20049;-75
2022/08/21 03:24:53;;;;;;;3.80;2.15;;;;;;;26.20;51.95;100599.69;5073543;28;20072;-75
2022/08/21 03:27:20;;;;;;;3.63;2.08;;;;;;;26.20;52.15;100595.09;5073515;28;20040;-75
2022/08/21 03:29:48;;;;;;;3.30;1.70;;;;;;;26.19;51.98;100598.84;5073874;28;20045;-75
2022/08/21 03:32:16;;;;;;;2.80;1.85;;;;;;;26.19;52.04;100589.88;5073305;28;20045;-75
2022/08/21 03:34:43;;;;;;;3.17;2.30;;;;;;;26.19;52.13;100593.41;5073342;28;20047;-75
2022/08/21 03:37:12;;;;;;;2.30;1.90;;;;;;;26.18;51.97;100586.31;5073299;28;20049;-75
2022/08/21 03:39:41;;;;;;;1.98;1.50;;;;;;;26.19;52.04;100592.56;5073325;28;20044;-75
2022/08/21 03:42:09;;;;;;;3.38;1.95;;;;;;;26.19;52.09;100587.16;5089493;28;20059;-75
2022/08/21 03:44:37;;;;;;;2.75;2.03;;;;;;;26.18;52.16;100580.88;5073274;28;20037;-76
2022/08/21 03:47:05;;;;;;;2.63;1.98;;;;;;;26.18;52.19;100580.03;5073299;28;20047;-75
2022/08/21 03:49:33;;;;;;;3.10;2.17;;;;;;;26.18;52.11;100571.91;5072396;28;20403;-75
2022/08/21 03:52:00;;;;;;;3.30;2.22;;;;;;;26.17;51.77;100576.50;5073163;28;20048;-75
2022/08/21 03:54:28;;;;;;;2.88;2.05;;;;;;;26.15;52.02;100575.81;5073034;28;20044;-75
2022/08/21 03:56:56;;;;;;;2.80;1.67;;;;;;;26.12;51.63;100576.19;5073745;28;20226;-76
2022/08/21 03:59:24;;;;;;;3.70;1.70;;;;;;;26.10;51.96;100584.50;5073418;28;20044;-74
2022/08/21 04:02:00;;;;;;;2.63;1.50;;;;;;;26.10;51.88;100579.09;5072241;28;20044;-75
2022/08/21 04:04:28;;;;;;;3.83;2.00;;;;;;;26.10;52.03;100587.22;5072975;28;20049;-75
2022/08/21 04:06:57;;;;;;;3.70;1.75;;;;;;;26.09;51.64;100588.25;5073616;28;20134;-75
2022/08/21 04:09:25;;;;;;;3.58;2.10;;;;;;;26.08;51.96;100591.13;5073157;28;20053;-75
2022/08/21 04:11:53;;;;;;;2.10;1.65;;;;;;;26.06;51.87;100591.31;5072989;28;20428;-75
2022/08/21 04:14:20;;;;;;;2.55;2.08;;;;;;;26.05;52.21;100586.06;5072808;28;20047;-75
2022/08/21 04:16:48;;;;;;;2.10;1.60;;;;;;;26.04;52.16;100585.22;5073406;28;20045;-75
2022/08/21 04:19:16;;;;;;;3.05;1.92;;;;;;;26.04;52.24;100585.22;5071838;28;20080;-75
2022/08/21 04:21:43;;;;;;;2.22;1.58;;;;;;;26.05;52.16;100592.34;5074461;28;20050;-75
2022/08/21 04:24:12;;;;;;;3.05;1.90;;;;;;;26.04;52.08;100589.81;5076603;28;20047;-75
2022/08/21 04:26:39;;;;;;;2.25;1.58;;;;;;;26.03;52.14;100596.28;5076622;28;20502;-75
2022/08/21 04:29:06;;;;;;;3.45;2.08;;;;;;;26.03;52.31;100597.09;5076583;28;20059;-75
2022/08/21 04:31:36;;;;;;;2.78;1.95;;;;;;;26.03;52.22;100599.81;5077059;28;20059;-75
2022/08/21 04:34:04;;;;;;;3.40;1.90;;;;;;;26.02;52.26;100595.44;5076458;28;20045;-75
2022/08/21 04:36:33;;;;;;;2.95;2.13;;;;;;;26.02;52.23;100591.88;5077037;28;20044;-75
2022/08/21 04:39:01;;;;;;;2.80;1.88;;;;;;;26.01;52.19;100601.88;5076316;28;20041;-75
2022/08/21 04:41:29;;;;;;;2.28;1.80;;;;;;;26.00;52.15;100600.19;5076320;28;20495;-76
2022/08/21 04:43:57;;;;;;;3.22;1.92;;;;;;;26.02;52.31;100603.56;5076296;28;20037;-75
2022/08/21 04:46:25;;;;;;;2.95;1.95;;;;;;;26.01;52.32;100607.31;5076236;28;20044;-75
2022/08/21 04:48:52;;;;;;;3.38;1.90;;;;;;;26.01;52.31;100610.03;5075032;28;20048;-75
2022/08/21 04:51:25;;;;;;;2.95;1.90;;;;;;;26.01;52.40;100617.28;5076948;28;20045;-75
2022/08/21 04:54:03;;;;;;;2.22;1.60;;;;;;;26.01;52.40;100611.88;5076930;28;20059;-75
2022/08/21 04:56:35;;;;;;;5.53;2.00;;;;;;;25.98;52.30;100613.09;5076358;28;20055;-75
2022/08/21 04:59:11;;;;;;;3.45;1.90;;;;;;;25.99;52.41;100616.66;5076912;28;20049;-75
2022/08/21 05:01:40;;;;;;;2.40;1.80;;;;;;;25.97;52.48;100616.84;5076593;28;20387;-75
2022/08/21 05:04:10;;;;;;;3.80;1.98;;;;;;;25.96;52.50;100625.13;5075970;28;20507;-75
2022/08/21 05:06:40;;;;;;;2.65;1.92;;;;;;;25.97;52.76;100615.97;5076156;28;20044;-75
2022/08/21 05:09:11;;;;;;;5.90;2.53;;;;;;;25.96;52.56;100625.97;5074763;28;20052;-75
2022/08/21 05:11:40;;;;;;;2.40;2.00;;;;;;;25.96;52.64;100623.25;5076393;28;20380;-75
2022/08/21 05:14:08;;;;;;;2.10;1.55;;;;;;;25.96;52.63;100615.13;5074483;28;20071;-75
2022/08/21 05:16:36;;;;;;;3.10;1.98;;;;;;;25.96;52.47;100617.00;5076155;28;20059;-75
2022/08/21 05:19:08;;;;;;;2.38;1.85;;;;;;;25.94;52.49;100614.47;5074498;28;20424;-75
2022/08/21 05:21:38;;;;;;;2.38;1.70;;;;;;;25.95;52.57;100620.75;5075523;28;20511;-75
2022/08/21 05:24:06;;;;;;;3.58;1.95;;;;;;;25.94;52.45;100619.91;5076422;28;20059;-75
2022/08/21 05:26:34;;;;;;;3.38;1.80;;;;;;;25.94;52.29;100621.78;5075270;28;20057;-75
2022/08/21 05:29:16;;;;;;;2.40;1.70;;;;;;;25.92;52.30;100619.22;5075968;28;20396;-75
2022/08/21 05:31:46;;;;;;;2.70;1.95;;;;;;;25.92;52.25;100621.09;5075475;28;20051;-75
2022/08/21 05:34:17;;;;;;;3.25;2.10;;;;;;;25.91;52.12;100622.97;5074288;28;20393;-75
2022/08/21 05:36:45;;;;;;;2.50;2.08;;;;;;;25.90;52.13;100615.88;5075410;28;20051;-75
2022/08/21 05:39:13;;;;;;;2.50;1.85;;;;;;;25.92;52.02;100624.66;5075485;28;20393;-75
2022/08/21 05:41:40;;;;;;;4.32;1.88;;;;;;;25.92;52.21;100624.66;5075192;28;20041;-75
2022/08/21 05:44:07;;;;;;;2.75;1.90;;;;;;;25.93;52.24;100629.06;5057620;28;20055;-75
2022/08/21 05:46:37;;;;;;;3.63;1.92;;;;;;;25.93;52.27;100623.66;5073913;28;20052;-75
2022/08/21 05:49:04;;;;;;;2.50;1.80;;;;;;;25.94;52.40;100625.31;5075392;28;20477;-75
2022/08/21 05:51:32;;;;;;;2.70;1.77;;;;;;;25.94;51.99;100627.19;5090440;28;20056;-75
2022/08/21 05:53:59;;;;;;;2.80;2.00;;;;;;;25.93;51.35;100642.63;5075453;28;20476;-75
2022/08/21 05:56:26;;;;;;;2.60;2.22;;;;;;;25.90;51.04;100632.13;5075495;28;20049;-75
2022/08/21 05:58:54;;;;;;;4.45;2.17;;;;;;;25.86;50.55;100638.94;5074866;28;20049;-75
2022/08/21 06:01:21;;;;;;;3.50;2.20;;;;;;;25.81;50.73;100636.78;5075006;28;20491;-74
2022/08/21 06:03:49;;;;;;;3.00;2.10;;;;;;;25.74;50.65;100643.06;5073684;28;20044;-74
2022/08/21 06:06:17;;;;;;;2.60;2.00;;;;;;;25.66;50.73;100641.22;5075395;28;20048;-74
2022/08/21 06:08:45;;;;;;;3.15;1.90;;;;;;;25.58;50.89;100647.53;5075163;28;20051;-74
2022/08/21 06:11:12;;;;;;;2.78;2.05;;;;;;;25.53;51.10;100644.53;5075147;28;20056;-74
2022/08/21 06:13:41;;;;;;;4.13;2.08;;;;;;;25.46;51.46;100640.00;5074389;28;20049;-74
2022/08/21 06:16:11;;;;;;;3.80;1.92;;;;;;;25.43;51.53;100643.88;5074769;28;20052;-74
2022/08/21 06:18:44;;;;;;;2.78;2.08;;;;;;;25.42;51.94;100639.50;5074939;28;20400;-75
2022/08/21 06:21:13;;;;;;;2.60;2.15;;;;;;;25.42;52.05;100634.06;5074990;28;20059;-75
2022/08/21 06:23:42;;;;;;;3.35;1.98;;;;;;;25.43;52.29;100640.34;5074420;28;20075;-74
2022/08/21 06:26:11;;;;;;;3.15;2.28;;;;;;;25.44;52.45;100642.84;5074329;28;20049;-74
2022/08/21 06:28:40;;;;;;;3.33;2.30;;;;;;;25.45;52.52;100635.59;5074659;28;20434;-75
2022/08/21 06:31:28;;;;;;;3.55;2.20;;;;;;;25.45;52.51;100641.84;5074262;28;20059;-75
2022/08/21 06:33:56;;;;;;;2.78;2.30;;;;;;;25.44;52.50;100637.44;5074662;28;20041;-75
2022/08/21 06:36:24;;;;;;;2.60;1.90;;;;;;;25.46;52.27;100640.00;5056331;28;20063;-75
2022/08/21 06:38:51;;;;;;;3.05;2.22;;;;;;;25.44;52.25;100637.44;5075032;28;20407;-74
2022/08/21 06:41:19;;;;;;;3.25;2.10;;;;;;;25.42;52.42;100639.50;5075036;28;20044;-74
2022/08/21 06:43:53;;;;;;;3.20;2.50;;;;;;;25.40;52.22;100636.97;5074157;28;20048;-75
2022/08/21 06:46:26;;;;;;;2.80;2.28;;;;;;;25.38;52.04;100638.16;5074259;28;20479;-75
2022/08/21 06:48:53;;;;;;;2.97;2.55;;;;;;;25.36;52.35;100637.47;5073076;28;20047;-74
2022/08/21 06:51:21;;;;;;;3.05;2.63;;;;;;;25.34;52.22;100642.25;5074666;28;20041;-74
2022/08/21 06:53:49;;;;;;;2.50;2.00;;;;;;;25.32;52.41;100637.00;5073963;28;20048;-74
2022/08/21 06:56:17;;;;;;;2.90;2.00;;;;;;;25.31;52.33;100642.59;5074633;28;20041;-75
2022/08/21 06:58:44;;;;;;;2.88;2.00;;;;;;;25.31;52.44;100642.59;5073884;28;20048;-75
2022/08/21 07:01:11;;;;;;;2.40;1.98;;;;;;;25.31;52.36;100642.59;5074601;28;20045;-74
2022/08/21 07:03:41;;;;;;;2.42;1.85;;;;;;;25.29;51.99;100637.34;5073453;28;20496;-75
2022/08/21 07:06:10;;;;;;;2.83;1.75;;;;;;;25.28;51.97;100637.50;5074524;28;20048;-74
2022/08/21 07:08:38;;;;;;;2.78;2.10;;;;;;;25.28;51.83;100635.66;5074477;28;20047;-74
2022/08/21 07:11:19;;;;;;;4.85;1.98;;;;;;;25.27;51.33;100636.66;5055918;28;20052;-75
2022/08/21 07:13:48;;;;;;;2.75;1.88;;;;;;;25.25;51.08;100638.72;5074210;28;20476;-74
2022/08/21 07:16:15;;;;;;;5.50;2.10;;;;;;;25.26;51.05;100636.84;5074033;28;20388;-75
2022/08/21 07:18:42;;;;;;;3.28;1.88;;;;;;;25.26;51.19;100644.97;5073533;28;20511;-75
2022/08/21 07:21:10;;;;;;;3.22;2.50;;;;;;;25.25;51.02;100640.59;5073931;28;20044;-75
2022/08/21 07:23:44;;;;;;;4.13;2.20;;;;;;;25.24;51.04;100647.88;5073508;28;20048;-75
2022/08/21 07:26:14;;;;;;;2.47;1.95;;;;;;;25.26;51.19;100636.84;5072974;28;20041;-75
2022/08/21 07:28:41;;;;;;;2.65;1.92;;;;;;;25.29;51.53;100639.22;5073695;28;20055;-75
2022/08/21 07:31:13;;;;;;;3.65;2.10;;;;;;;25.31;51.27;100648.00;5073459;28;20053;-74
2022/08/21 07:33:41;;;;;;;4.63;2.10;;;;;;;25.31;51.25;100638.00;5073723;28;20495;-75
2022/08/21 07:36:09;;;;;;;3.03;2.30;;;;;;;25.34;51.47;100639.53;5072933;28;20308;-75
2022/08/21 07:38:37;;;;;;;3.80;2.42;;;;;;;25.34;51.28;100637.66;5074061;28;20055;-75
2022/08/21 07:41:17;;;;;;;4.15;2.20;;;;;;;25.34;51.06;100640.38;5073681;28;20488;-75
2022/08/21 07:43:45;;;;;;;2.80;2.13;;;;;;;25.35;50.99;100642.06;5073004;28;20045;-75
2022/08/21 07:46:13;;;;;;;3.63;2.15;;;;;;;25.36;50.92;100642.91;5073565;28;20044;-75
2022/08/21 07:48:42;;;;;;;4.82;1.90;;;;;;;25.38;50.74;100639.00;5073641;28;20049;-75
2022/08/21 07:51:13;;;;;;;3.17;1.95;;;;;;;25.39;51.07;100640.69;5073233;28;20055;-75
2022/08/21 07:53:41;;;;;;;4.80;2.25;;;;;;;25.40;50.53;100641.53;5073788;28;20048;-74
2022/08/21 07:56:10;;;;;;;2.83;1.80;;;;;;;25.39;50.58;100640.69;5073976;28;20503;-75
2022/08/21 07:58:38;;;;;;;4.50;2.15;;;;;;;25.42;50.93;100642.19;5077997;28;20055;-74
2022/08/21 08:01:06;;;;;;;2.90;1.95;;;;;;;25.43;50.88;100645.75;5076189;28;20044;-75
2022/08/21 08:03:33;;;;;;;3.97;2.00;;;;;;;25.43;50.72;100646.59;5076151;28;20102;-75
2022/08/21 08:06:04;;;;;;;3.25;2.25;;;;;;;25.46;50.88;100642.69;5077437;28;20044;-75
2022/08/21 08:08:31;;;;;;;4.20;2.30;;;;;;;25.48;50.87;100646.06;5075936;28;20053;-75
2022/08/21 08:11:00;;;;;;;2.50;1.88;;;;;;;25.49;51.10;100639.63;5077410;28;20059;-74
2022/08/21 08:13:27;;;;;;;2.50;1.85;;;;;;;25.51;51.18;100640.28;5077118;28;20055;-74
2022/08/21 08:15:54;;;;;;;3.65;2.15;;;;;;;25.52;51.42;100634.72;5077213;28;20399;-74
2022/08/21 08:18:22;;;;;;;2.75;1.88;;;;;;;25.53;51.63;100633.69;5077536;28;20047;-74
2022/08/21 08:20:49;;;;;;;2.90;2.08;;;;;;;25.55;51.54;100628.91;5076712;28;20052;-74
2022/08/21 08:23:17;;;;;;;2.90;2.33;;;;;;;25.56;51.31;100627.03;5076926;28;20045;-75
2022/08/21 08:25:44;;;;;;;4.50;2.50;;;;;;;25.57;51.44;100631.47;5077119;28;20051;-75
2022/08/21 08:28:11;;;;;;;3.83;2.30;;;;;;;25.59;51.42;100634.81;5076613;28;20047;-75
2022/08/21 08:30:45;;;;;;;4.00;2.60;;;;;;;25.60;51.44;100623.81;5077014;28;20048;-75
2022/08/21 08:33:13;;;;;;;4.72;2.28;;;;;;;25.62;51.44;100621.75;5076485;28;20051;-75
2022/08/21 08:35:44;;;;;;;2.78;2.03;;;;;;;25.65;51.53;100634.13;5076355;28;20381;-74
2022/08/21 08:38:12;;;;;;;4.88;2.08;;;;;;;25.66;51.56;100624.97;5077049;28;20036;-75
2022/08/21 08:40:43;;;;;;;3.80;1.90;;;;;;;25.69;51.75;100626.50;5076863;28;20048;-76
2022/08/21 08:43:13;;;;;;;2.80;2.15;;;;;;;25.71;51.44;100629.84;5077003;28;20044;-75
2022/08/21 08:45:46;;;;;;;3.15;2.25;;;;;;;25.73;51.75;100622.41;5076204;28;20044;-75
2022/08/21 08:48:31;;;;;;;2.53;2.00;;;;;;;25.74;51.52;100616.78;5076521;28;20400;-76
2022/08/21 08:51:02;;;;;;;3.28;2.15;;;;;;;25.76;51.67;100613.88;5092295;28;20048;-75
2022/08/21 08:53:36;;;;;;;2.83;1.88;;;;;;;25.77;51.59;100604.75;5076464;28;20048;-75
2022/08/21 08:56:05;;;;;;;4.13;2.30;;;;;;;25.78;51.51;100617.31;5076524;28;20044;-75
2022/08/21 08:58:39;;;;;;;2.80;2.13;;;;;;;25.80;51.86;100604.38;5076353;28;20055;-80
2022/08/21 09:01:15;;;;;;;3.30;2.10;;;;;;;25.80;51.61;100604.38;5076759;28;20048;-75
2022/08/21 09:03:44;;;;;;;5.30;1.90;;;;;;;25.82;51.67;100602.34;5075984;28;20411;-75
2022/08/21 09:06:32;;;;;;;3.13;2.10;;;;;;;25.82;51.67;100597.78;5076249;28;20392;-77
2022/08/21 09:09:11;;;;;;;4.53;2.20;;;;;;;25.83;51.73;100601.31;5075511;28;20056;-77
2022/08/21 09:11:47;;;;;;;3.05;2.13;;;;;;;25.84;51.78;100598.44;5075662;28;20060;-78
2022/08/21 09:14:17;;;;;;;4.78;1.90;;;;;;;25.84;51.78;100603.84;5076339;28;20381;-77
2022/08/21 09:17:09;;;;;;;2.88;1.95;;;;;;;25.86;51.86;100592.84;5077667;28;20392;-76
2022/08/21 09:19:43;;;;;;;3.38;1.77;;;;;;;25.87;51.89;100597.22;5076426;28;20055;-77
2022/08/21 09:22:22;;;;;;;5.97;2.05;;;;;;;25.88;51.86;100590.78;5076590;28;20048;-76
2022/08/21 09:25:18;;;;;;;4.88;1.95;;;;;;;25.88;51.86;100588.06;5058750;28;20053;-77
2022/08/21 09:27:45;;;;;;;3.85;2.13;;;;;;;25.89;51.85;100597.91;5075297;28;20052;-75
2022/08/21 09:30:13;;;;;;;3.60;1.95;;;;;;;25.90;52.05;100599.59;5075448;28;20041;-75
2022/08/21 09:32:41;;;;;;;6.90;2.60;;;;;;;25.91;51.93;100598.56;5076018;28;20048;-75
2022/08/21 09:35:11;;;;;;;4.50;2.13;;;;;;;25.90;51.83;100594.16;5075334;28;20426;-76
2022/08/21 09:37:46;;;;;;;4.55;2.03;;;;;;;25.93;51.98;100585.69;5074074;28;20052;-75
2022/08/21 09:40:32;;;;;;;4.55;2.22;;;;;;;25.93;52.08;100585.69;5075898;28;20048;-75
2022/08/21 09:43:19;;;;;;;3.75;2.13;;;;;;;25.93;51.96;100580.25;5074052;28;20063;-75
2022/08/21 09:45:48;;;;;;;3.55;2.00;;;;;;;25.94;52.02;100579.22;5075747;28;20056;-75
2022/08/21 09:48:24;;;;;;;4.82;2.05;;;;;;;25.95;52.14;100569.22;5075957;28;20041;-75
2022/08/21 09:51:04;;;;;;;2.95;2.00;;;;;;;25.94;52.08;100562.94;5073537;28;20063;-75
2022/08/21 09:53:33;;;;;;;7.63;3.15;;;;;;;25.97;52.04;100567.13;5076065;28;20480;-75
2022/08/21 09:58:51;;;;;;;4.25;2.30;;;;;;;25.97;52.05;100561.72;5075563;28;20048;-76
2022/08/21 10:01:23;;;;;;;4.80;2.15;;;;;;;25.97;52.17;100556.28;5074943;28;20044;-76
2022/08/21 10:04:10;;;;;;;3.17;2.08;;;;;;;25.97;52.08;100557.16;5073948;28;20056;-76
2022/08/21 10:06:38;;;;;;;3.58;1.70;;;;;;;25.98;52.16;100549.88;5074813;28;20499;-75
2022/08/21 10:09:18;;;;;;;2.70;1.73;;;;;;;25.98;51.95;100556.13;5074981;28;20048;-75
2022/08/21 10:11:56;;;;;;;3.60;1.83;;;;;;;25.99;51.96;100552.38;5072064;28;20049;-75
2022/08/21 10:14:49;;;;;;;3.47;1.98;;;;;;;25.99;52.06;100548.81;5057142;28;20052;-75
2022/08/21 10:17:27;;;;;;;4.93;2.00;;;;;;;26.00;52.32;100550.50;5074570;28;20051;-75
2022/08/21 10:20:32;;;;;;;3.30;1.95;;;;;;;26.01;52.17;100547.63;5074496;28;20049;-75
2022/08/21 10:23:37;;;;;;;2.55;1.83;;;;;;;26.00;52.14;100551.34;5052591;28;20056;-75
2022/08/21 10:26:25;;;;;;;3.90;2.00;;;;;;;26.01;52.17;100550.34;5052542;28;20048;-75
2022/08/21 10:29:40;;;;;;;4.03;2.42;;;;;;;26.01;52.19;100542.22;5052860;28;20060;-75
2022/08/21 10:32:36;;;;;;;2.85;1.80;;;;;;;26.02;52.25;100540.34;5049697;28;20056;-74
2022/08/21 10:35:39;;;;;;;4.03;2.28;;;;;;;26.02;52.21;100532.19;5052452;28;20469;-74
2022/08/21 10:38:16;;;;;;;3.05;1.80;;;;;;;26.03;52.28;100537.44;5032032;28;20076;-74
2022/08/21 10:41:28;;;;;;;4.07;2.08;;;;;;;26.04;52.27;100530.13;5035220;28;20467;-74
2022/08/21 10:44:05;;;;;;;2.75;1.80;;;;;;;26.05;52.18;100529.09;5052520;28;20056;-74
2022/08/21 10:46:56;;;;;;;3.85;2.08;;;;;;;26.05;52.26;100526.38;5052339;28;20045;-74
2022/08/21 10:49:46;;;;;;;3.13;1.92;;;;;;;26.04;52.27;100520.13;5052382;28;20081;-74
2022/08/21 10:52:50;;;;;;;2.33;1.80;;;;;;;26.05;52.20;100521.81;5052457;28;20060;-74
2022/08/21 10:55:21;;;;;;;4.70;2.42;;;;;;;26.06;52.27;100520.78;5052073;28;20158;-74
2022/08/21 10:58:04;;;;;;;4.05;2.08;;;;;;;26.06;52.24;100518.09;5069916;28;20056;-74
2022/08/21 11:00:45;;;;;;;3.28;2.28;;;;;;;26.06;52.16;100515.38;5074267;28;20044;-74
2022/08/21 11:03:31;;;;;;;4.10;2.10;;;;;;;26.07;52.13;100518.91;5072990;28;20057;-74
2022/08/21 11:06:14;;;;;;;2.92;1.98;;;;;;;26.06;52.26;100512.66;5074073;28;20063;-74
2022/08/21 11:08:46;;;;;;;3.08;2.15;;;;;;;26.07;52.22;100508.91;5072356;28;20052;-75
2022/08/21 11:11:21;;;;;;;5.28;2.00;;;;;;;26.07;52.18;100503.47;5055824;28;20412;-74
2022/08/21 11:13:54;;;;;;;3.22;2.20;;;;;;;26.07;52.26;100503.47;5074397;28;20047;-75
2022/08/21 11:16:32;;;;;;;3.50;2.00;;;;;;;26.09;52.22;100497.84;5074082;28;20041;-74
2022/08/21 11:19:23;;;;;;;3.42;2.58;;;;;;;26.08;52.27;100494.31;5073848;28;20369;-74
2022/08/21 11:22:05;;;;;;;2.60;1.88;;;;;;;26.08;52.16;100488.03;5053945;28;20060;-74
2022/08/21 11:25:10;;;;;;;4.35;2.25;;;;;;;26.09;52.23;100487.88;5072533;28;20071;-74
2022/08/21 11:28:00;;;;;;;2.60;1.80;;;;;;;26.09;52.37;100482.44;5073898;28;20366;-74
2022/08/21 11:30:41;;;;;;;2.90;2.03;;;;;;;26.09;52.28;100482.44;5073222;28;20036;-74
2022/08/21 11:33:31;;;;;;;3.13;2.00;;;;;;;26.09;52.29;100477.03;5073784;28;20499;-74
2022/08/21 11:36:20;;;;;;;2.92;2.05;;;;;;;26.10;52.29;100472.44;5072727;28;20396;-74
2022/08/21 11:39:13;;;;;;;2.42;1.60;;;;;;;26.11;52.43;100471.41;5073533;28;20052;-74
2022/08/21 11:41:52;;;;;;;3.05;1.90;;;;;;;26.11;52.35;100476.81;5072917;28;20488;-74
2022/08/21 11:44:48;;;;;;;3.03;1.80;;;;;;;26.11;52.23;100476.81;5072689;28;20064;-74
2022/08/21 11:47:40;;;;;;;2.25;1.63;;;;;;;26.12;52.26;100482.06;5073728;28;20056;-75
2022/08/21 11:50:18;;;;;;;2.80;1.80;;;;;;;26.12;52.44;100468.50;5074068;28;20048;-74